createdAt,value
2022-12-23T00:16:57.027Z,1008.99
2022-12-23T00:45:49.335Z,1009.05
2022-12-23T01:14:38.391Z,1009.24
2022-12-23T01:43:38.193Z,1009.71
2022-12-23T02:12:37.433Z,1010.01
2022-12-23T02:41:36.053Z,1010.4
2022-12-23T03:10:32.271Z,1010.71
2022-12-23T03:39:12.555Z,1010.73
2022-12-23T04:08:00.739Z,1010.88
2022-12-23T04:36:32.680Z,1011.09
2022-12-23T05:05:18.995Z,1011.13
2022-12-23T05:34:08.247Z,1011.27
2022-12-23T06:02:38.629Z,1011.2
2022-12-23T06:31:05.167Z,1011.21
2022-12-23T06:59:51.355Z,1011.18
2022-12-23T07:28:34.146Z,1011.72
2022-12-23T07:57:13.185Z,1011.64
2022-12-23T08:25:55.249Z,1011.39
2022-12-23T08:54:28.562Z,1011.76
2022-12-23T09:23:14.884Z,1011.63
2022-12-23T09:51:51.324Z,1011.65
2022-12-23T10:20:23.387Z,1011.05
2022-12-23T10:48:57.394Z,1010.59
2022-12-23T11:17:27.508Z,1010.29
2022-12-23T11:45:56.470Z,1010.08
2022-12-23T12:14:32.088Z,1009.74
2022-12-23T12:43:12.273Z,1009.09
2022-12-23T13:11:58.478Z,1008.9
2022-12-23T13:40:30.555Z,1008.54
2022-12-23T14:09:09.870Z,1009.12
2022-12-23T14:37:49.486Z,1009.41
2022-12-23T15:06:28.902Z,1009.44
2022-12-23T15:35:03.667Z,1009.39
2022-12-23T16:03:38.441Z,1009.48
2022-12-23T16:32:09.463Z,1009.38
2022-12-23T17:00:49.114Z,1009.36
2022-12-23T17:29:25.486Z,1009.56
2022-12-23T17:58:02.666Z,1009.73
2022-12-23T18:26:40.941Z,1010.27
2022-12-23T18:55:14.911Z,1010.74
2022-12-23T19:23:56.370Z,1011.28
2022-12-23T19:52:27.547Z,1011.59
2022-12-23T20:21:03.707Z,1012.22
2022-12-23T20:49:39.676Z,1012.71
2022-12-23T21:18:37.661Z,1012.78
2022-12-23T21:47:21.983Z,1013.09
2022-12-23T22:16:16.362Z,1013.72
2022-12-23T22:45:06.580Z,1013.65
2022-12-23T23:14:02.660Z,1014.01
2022-12-23T23:43:01.966Z,1014.36
